Gypsum, Ohio
Current Conditions -  °F | °C
As of 1:13 AM on Sunday 26 Oct 2014 (Local Time) from KPCW Reporting Station
Clear Clear  
Wind Chill: 55°   Ceiling: Unl
Heat Index: 55°   Visibility: 10mi
Dew Point: 37°   Wind: 13mph
Humidity: 51%   Direction: 280°W
Pressure: 29.83"   Gusts: NA
Location:  41.49°N, 82.88°W
Report Text: KPCW 260513Z AUTO 28011KT 10SM CLR 13/03 A2983 RMK AO2 $
Loading
Personal Weather Stations






























Interactive Weather Map
Tropical Storm Tracking
New forecast layout! Learn more

10-Day Weather Forecast

Advertisements
Track Severe Weather on mobile